Nord Imagination — 3FIA8 — position and weather

sailwx.info

Track history (hours):
 
Tides and Currents Weather Stations Pressure Air Temp Water Temp Dewpoint Dewpoint Depression Visibility Wind Speed Wind Dir Waves Ship Positions

Nord Imagination

Last reported at 2016-May-03 17:09 UTC. Time now 2016-May-04 06:02 UTC.
Position N 25°48' W 079°32'.

Length 179 m; draft 8.1 m.

Type: Ship (hazmat cat B). MMSI: 354828000.

Date/timePositionNaut miles runAvg speedWind from/ knotsBaromVisibWave heightAir tempDewpointWater temp
2016-May-03 17:09N 25°48' W 079°32'813.0
2016-May-03 16:33N 25°56' W 079°32'1312.9
2016-May-03 15:33N 26°08' W 079°30'2512.6
2016-May-03 13:33N 26°33' W 079°27'  
2016-May-01 05:33N 38°23' W 074°10'1414.4
2016-May-01 04:33N 38°37' W 074°06'1514.9
2016-May-01 03:33N 38°52' W 074°02'1414.3
2016-May-01 02:33N 39°06' W 073°58'1414.2
2016-May-01 01:33N 39°20' W 073°56'1413.8
2016-May-01 00:32N 39°34' W 073°54'1414.2
2016-Apr-30 23:33N 39°48' W 073°52'1414.0
2016-Apr-30 22:33N 40°02' W 073°51'1210.7
2016-Apr-30 21:24N 40°14' W 073°50'13 7.3
2016-Apr-30 19:34N 40°27' W 073°53'9 8.6
2016-Apr-30 18:34N 40°29' W 074°04'  
2016-Apr-28 06:13N 40°33' W 074°15'11 6.5
2016-Apr-28 04:32N 40°29' W 074°02'6 6.5
2016-Apr-28 03:33N 40°27' W 073°54'7 6.6
2016-Apr-28 02:27N 40°29' W 073°44'3 0.5
2016-Apr-27 19:10N 40°31' W 073°41'4 5.9
2016-Apr-27 18:33N 40°29' W 073°45'8 7.8
2016-Apr-27 17:33N 40°29' W 073°55'1010.5
2016-Apr-27 16:33N 40°38' W 074°03'3 2.9
2016-Apr-27 15:31N 40°39' W 074°07'0 0.0
2016-Apr-27 14:31N 40°39' W 074°07'0 0.0
2016-Apr-27 13:31N 40°39' W 074°07'0 0.0
2016-Apr-27 12:31N 40°39' W 074°07'0 0.0
2016-Apr-27 11:31N 40°39' W 074°07'0 0.0
2016-Apr-27 10:31N 40°39' W 074°07'0 0.0
2016-Apr-27 09:31N 40°39' W 074°07'0 0.0
2016-Apr-27 08:31N 40°39' W 074°07'0 0.0
2016-Apr-27 07:31N 40°39' W 074°07'0 0.0
2016-Apr-27 06:31N 40°39' W 074°07'0 0.0
2016-Apr-27 05:31N 40°39' W 074°07'0 0.0
2016-Apr-27 04:31N 40°39' W 074°07'0 0.0
2016-Apr-27 03:31N 40°39' W 074°07'0 0.0
2016-Apr-27 02:28N 40°39' W 074°07'0 0.0
2016-Apr-27 01:31N 40°39' W 074°07'0 0.0
2016-Apr-27 00:31N 40°39' W 074°07'0 0.0
2016-Apr-26 23:31N 40°39' W 074°07'0 0.0
2016-Apr-26 22:31N 40°39' W 074°07'0 0.0
2016-Apr-26 21:31N 40°39' W 074°07'2 1.7
2016-Apr-26 20:33N 40°39' W 074°05'4 3.8
2016-Apr-26 19:31N 40°36' W 074°02'0 0.0
2016-Apr-26 18:31N 40°36' W 074°02'2 1.8
2016-Apr-26 17:33N 40°37' W 074°03'7 6.5
2016-Apr-26 16:33N 40°38' W 074°12'3 0.2
2016-Apr-25 23:08N 40°35' W 074°13'2 2.6
2016-Apr-25 22:21N 40°33' W 074°14'4 3.1
2016-Apr-25 21:08N 40°30' W 074°11'6 9.8
2016-Apr-25 20:33N 40°29' W 074°04'8 8.0
2016-Apr-25 19:33N 40°27' W 073°54'11 8.7
2016-Apr-25 18:18N 40°27' W 073°40'2 0.2
2016-Apr-25 09:27N 40°29' W 073°38'0 0.0
2016-Apr-25 05:24N 40°29' W 073°38'0 0.0
2016-Apr-25 04:33N 40°29' W 073°38'0 0.0
2016-Apr-25 03:26N 40°29' W 073°38'0 0.1
2016-Apr-25 02:05N 40°29' W 073°38'2 4.4
2016-Apr-25 01:32N 40°29' W 073°41'8 8.2
2016-Apr-25 00:34N 40°27' W 073°51'8 8.0
2016-Apr-24 23:34N 40°29' W 074°02'10 8.1
2016-Apr-24 22:20N 40°29' W 074°15'7 0.4
2016-Apr-24 02:27N 40°37' W 074°12'3 2.7
2016-Apr-24 01:32N 40°39' W 074°11'6 6.0
2016-Apr-24 00:33N 40°38' W 074°03'8 7.8
2016-Apr-23 23:33N 40°31' W 073°59'9 8.9
2016-Apr-23 22:33N 40°27' W 073°48'7 4.8
2016-Apr-23 21:12N 40°27' W 073°40'  
Track history (hours):
 
Tides and Currents Weather Stations Pressure Air Temp Water Temp Dewpoint Dewpoint Depression Visibility Wind Speed Wind Dir Waves Ship Positions

Nord Imagination

Last reported at 2016-May-03 17:09 UTC. Time now 2016-May-04 06:02 UTC.
Position N 25°48' W 079°32'.

Length 179 m; draft 8.1 m.

Type: Ship (hazmat cat B). MMSI: 354828000.

Date/timePositionNaut miles runAvg speedWind from/ knotsBaromVisibWave heightAir tempDewpointWater temp
2016-May-03 17:09N 25°48' W 079°32'813.0
2016-May-03 16:33N 25°56' W 079°32'1312.9
2016-May-03 15:33N 26°08' W 079°30'2512.6
2016-May-03 13:33N 26°33' W 079°27'  
2016-May-01 05:33N 38°23' W 074°10'1414.4
2016-May-01 04:33N 38°37' W 074°06'1514.9
2016-May-01 03:33N 38°52' W 074°02'1414.3
2016-May-01 02:33N 39°06' W 073°58'1414.2
2016-May-01 01:33N 39°20' W 073°56'1413.8
2016-May-01 00:32N 39°34' W 073°54'1414.2
2016-Apr-30 23:33N 39°48' W 073°52'1414.0
2016-Apr-30 22:33N 40°02' W 073°51'1210.7
2016-Apr-30 21:24N 40°14' W 073°50'13 7.3
2016-Apr-30 19:34N 40°27' W 073°53'9 8.6
2016-Apr-30 18:34N 40°29' W 074°04'  
2016-Apr-28 06:13N 40°33' W 074°15'11 6.5
2016-Apr-28 04:32N 40°29' W 074°02'6 6.5
2016-Apr-28 03:33N 40°27' W 073°54'7 6.6
2016-Apr-28 02:27N 40°29' W 073°44'3 0.5
2016-Apr-27 19:10N 40°31' W 073°41'4 5.9
2016-Apr-27 18:33N 40°29' W 073°45'8 7.8
2016-Apr-27 17:33N 40°29' W 073°55'1010.5
2016-Apr-27 16:33N 40°38' W 074°03'3 2.9
2016-Apr-27 15:31N 40°39' W 074°07'0 0.0
2016-Apr-27 14:31N 40°39' W 074°07'0 0.0
2016-Apr-27 13:31N 40°39' W 074°07'0 0.0
2016-Apr-27 12:31N 40°39' W 074°07'0 0.0
2016-Apr-27 11:31N 40°39' W 074°07'0 0.0
2016-Apr-27 10:31N 40°39' W 074°07'0 0.0
2016-Apr-27 09:31N 40°39' W 074°07'0 0.0
2016-Apr-27 08:31N 40°39' W 074°07'0 0.0
2016-Apr-27 07:31N 40°39' W 074°07'0 0.0
2016-Apr-27 06:31N 40°39' W 074°07'0 0.0
2016-Apr-27 05:31N 40°39' W 074°07'0 0.0
2016-Apr-27 04:31N 40°39' W 074°07'0 0.0
2016-Apr-27 03:31N 40°39' W 074°07'0 0.0
2016-Apr-27 02:28N 40°39' W 074°07'0 0.0
2016-Apr-27 01:31N 40°39' W 074°07'0 0.0
2016-Apr-27 00:31N 40°39' W 074°07'0 0.0
2016-Apr-26 23:31N 40°39' W 074°07'0 0.0
2016-Apr-26 22:31N 40°39' W 074°07'0 0.0
2016-Apr-26 21:31N 40°39' W 074°07'2 1.7
2016-Apr-26 20:33N 40°39' W 074°05'4 3.8
2016-Apr-26 19:31N 40°36' W 074°02'0 0.0
2016-Apr-26 18:31N 40°36' W 074°02'2 1.8
2016-Apr-26 17:33N 40°37' W 074°03'7 6.5
2016-Apr-26 16:33N 40°38' W 074°12'3 0.2
2016-Apr-25 23:08N 40°35' W 074°13'2 2.6
2016-Apr-25 22:21N 40°33' W 074°14'4 3.1
2016-Apr-25 21:08N 40°30' W 074°11'6 9.8
2016-Apr-25 20:33N 40°29' W 074°04'8 8.0
2016-Apr-25 19:33N 40°27' W 073°54'11 8.7
2016-Apr-25 18:18N 40°27' W 073°40'2 0.2
2016-Apr-25 09:27N 40°29' W 073°38'0 0.0
2016-Apr-25 05:24N 40°29' W 073°38'0 0.0
2016-Apr-25 04:33N 40°29' W 073°38'0 0.0
2016-Apr-25 03:26N 40°29' W 073°38'0 0.1
2016-Apr-25 02:05N 40°29' W 073°38'2 4.4
2016-Apr-25 01:32N 40°29' W 073°41'8 8.2
2016-Apr-25 00:34N 40°27' W 073°51'8 8.0
2016-Apr-24 23:34N 40°29' W 074°02'10 8.1
2016-Apr-24 22:20N 40°29' W 074°15'7 0.4
2016-Apr-24 02:27N 40°37' W 074°12'3 2.7
2016-Apr-24 01:32N 40°39' W 074°11'6 6.0
2016-Apr-24 00:33N 40°38' W 074°03'8 7.8
2016-Apr-23 23:33N 40°31' W 073°59'9 8.9
2016-Apr-23 22:33N 40°27' W 073°48'7 4.8
2016-Apr-23 21:12N 40°27' W 073°40'  

Dump ship's entire track history